This is the latest recevied weather packets stored in our database for station/object F4WDE-10. If no packets are shown the sender has not sent any weather packets the latest 10 day(s).
| Time | Temp. | Humidity | Pressure | Rain* | Wind** | Luminosity | Snow |
|---|---|---|---|---|---|---|---|
| 1777922707 | 14.44° C | 86% | 961 hPa | - | - | - | - |
| 1777921806 | 15° C | 87% | 961 hPa | - | - | - | - |
| 1777920905 | 15° C | 87% | 961 hPa | - | - | - | - |
| 1777920004 | 15° C | 85% | 961 hPa | - | - | - | - |
| 1777919103 | 16.11° C | 75% | 960 hPa | - | - | - | - |
| 1777918202 | 16.11° C | 71% | 961 hPa | - | - | - | - |
| 1777917301 | 16.11° C | 78% | 961 hPa | - | - | - | - |
| 1777916400 | 16.11° C | 82% | 961 hPa | - | - | - | - |
| 1777915499 | 16.11° C | 89% | 960 hPa | - | - | - | - |
| 1777914598 | 16.11° C | 89% | 960 hPa | - | - | - | - |
| 1777913696 | 16.11° C | 90% | 961 hPa | - | - | - | - |
| 1777912795 | 16.11° C | 91% | 961 hPa | - | - | - | - |
| 1777911894 | 16.11° C | 94% | 961 hPa | - | - | - | - |
| 1777910993 | 16.11° C | 94% | 961 hPa | - | - | - | - |
| 1777910092 | 16.11° C | 93% | 961 hPa | - | - | - | - |
| 1777909191 | 16.11° C | 94% | 961 hPa | - | - | - | - |
| 1777908289 | 16.11° C | 93% | 961 hPa | - | - | - | - |
| 1777907388 | 16.11° C | 95% | 961 hPa | - | - | - | - |
| 1777906487 | 16.11° C | 94% | 961 hPa | - | - | - | - |
| 1777905586 | 16.67° C | 94% | 961 hPa | - | - | - | - |
| 1777904685 | 16.11° C | 97% | 961 hPa | - | - | - | - |
| 1777903784 | 16.67° C | 95% | 961 hPa | - | - | - | - |
| 1777902883 | 17.22° C | 90% | 961 hPa | - | - | - | - |
| 1777901982 | 17.22° C | 88% | 961 hPa | - | - | - | - |
| 1777901081 | 16.67° C | 90% | 961 hPa | - | - | - | - |
* Rain since midnight (hover to see other rain measurements)
** Current wind speed in m/s (hover to see current wind gust speed)